Kinston Regional Jetport At Stallings Field Kinston US
ICAO: KISO
IATA: ISO
Category: Medium
Scheduled Services: No

Elevation: 93 ft
TransAlt. 18000 ft.

Airport Communications:
SEYMOUR JOHN APP/DEP:127.3
AWOS 3:132.75
CTAF:120.6
GND:121.9
RALEIGH RDO:109.6
TWR:120.6
UNICOM:122.95

KISO Zoom In..

Runways:

(A) RW 05 length 11500 ft width 150 ft
ILS 111.30 / hdg 50

(B) RW 23 length 11500 ft width 150 ft
---- / hdg 230

Location; KISO
Day. 15 / Time. 21.56 Zulu
* Altimeter: 30.02
* Temperature: 33° c. 91.4°f.
* Wind from: 180° Speed 06 kn.
Dewpoint: 16° c.
Visibility: 10 Statute Miles.
Clouds: Clear (manual report).

KISO 152156Z 18006KT 10SM SKC 33/16 A3002


Wind From 180°
Speed 06 kn.

 
 
jpsmedia.com for Web Design worldairports.se 2018   terms of use